Time;durP1;ratioP1;P1;durP2;ratioP2;P2;SDS_P1;SDS_P2;PMS_P1;PMS_P2;Temp;Humidity;BMP_temperature;BMP_pressure;BME280_temperature;BME280_humidity;BME280_pressure;Samples;Min_cycle;Max_cycle;Signal;HPM_P1;HPM_P2
2023/02/18 00:00:52;;;;;;;5.30;3.80;;;12.00;99.90;;;;;;4997783;28;20042;-81
2023/02/18 00:03:18;;;;;;;5.80;4.90;;;12.10;99.90;;;;;;4997276;28;20053;-80
2023/02/18 00:05:45;;;;;;;5.40;3.63;;;12.00;99.90;;;;;;4996033;28;20073;-78
2023/02/18 00:08:12;;;;;;;4.68;3.45;;;12.10;99.90;;;;;;4997366;28;20039;-81
2023/02/18 00:10:38;;;;;;;6.13;3.35;;;12.10;99.90;;;;;;4996245;28;20066;-80
2023/02/18 00:13:07;;;;;;;6.53;3.10;;;12.10;99.90;;;;;;4978253;28;20038;-78
2023/02/18 00:15:34;;;;;;;3.73;3.00;;;12.10;99.90;;;;;;4977965;28;20386;-80
2023/02/18 00:18:00;;;;;;;3.83;2.78;;;12.10;99.90;;;;;;4975811;28;20292;-77
2023/02/18 00:20:27;;;;;;;5.10;3.03;;;12.10;99.90;;;;;;4976672;28;20053;-81
2023/02/18 00:22:54;;;;;;;4.30;2.40;;;12.10;99.90;;;;;;4976664;28;20466;-80
2023/02/18 00:25:20;;;;;;;4.88;2.50;;;12.20;99.90;;;;;;4975622;28;20433;-78
2023/02/18 00:27:47;;;;;;;4.70;2.35;;;12.10;99.90;;;;;;4977603;28;20129;-78
2023/02/18 00:30:14;;;;;;;4.13;2.67;;;12.10;99.90;;;;;;4960488;28;20047;-81
2023/02/18 00:32:40;;;;;;;3.70;2.13;;;12.10;99.90;;;;;;4976025;28;20065;-79
2023/02/18 00:35:07;;;;;;;4.40;2.70;;;12.20;99.90;;;;;;4976456;28;20045;-78
2023/02/18 00:37:34;;;;;;;4.93;2.25;;;12.20;99.90;;;;;;4975234;28;20050;-80
2023/02/18 00:40:01;;;;;;;3.88;2.70;;;12.10;99.90;;;;;;4976261;28;20042;-79
2023/02/18 00:42:30;;;;;;;3.50;2.47;;;12.10;99.90;;;;;;4977730;28;20209;-80
2023/02/18 00:44:56;;;;;;;4.93;2.38;;;12.10;99.90;;;;;;4976226;28;20043;-78
2023/02/18 00:47:23;;;;;;;6.35;2.85;;;12.10;99.90;;;;;;4975961;28;20101;-80
2023/02/18 00:49:50;;;;;;;5.40;2.83;;;12.00;99.90;;;;;;4976826;28;20054;-79
2023/02/18 00:52:16;;;;;;;5.05;2.78;;;11.90;99.90;;;;;;4975180;28;20078;-82
2023/02/18 00:54:43;;;;;;;4.35;3.10;;;11.90;99.90;;;;;;4976747;28;20378;-79
2023/02/18 00:57:10;;;;;;;3.85;2.40;;;11.80;99.90;;;;;;4974545;28;20074;-79
2023/02/18 00:59:36;;;;;;;5.35;2.95;;;11.70;99.90;;;;;;4976288;28;20062;-78
2023/02/18 01:02:06;;;;;;;5.47;3.05;;;11.70;99.90;;;;;;4959798;28;20078;-80
2023/02/18 01:04:32;;;;;;;3.53;2.63;;;11.60;99.90;;;;;;4975982;28;20374;-80
2023/02/18 01:06:59;;;;;;;5.18;3.10;;;11.60;99.90;;;;;;4975436;28;20342;-78
2023/02/18 01:09:27;;;;;;;5.35;2.90;;;11.50;99.90;;;;;;4975572;28;20045;-79
2023/02/18 01:11:53;;;;;;;3.58;2.78;;;11.50;99.90;;;;;;4974636;28;20058;-80
2023/02/18 01:14:20;;;;;;;5.72;3.05;;;11.50;99.90;;;;;;4976786;28;20035;-80
2023/02/18 01:16:47;;;;;;;4.15;2.55;;;11.40;99.90;;;;;;4975460;28;20043;-79
2023/02/18 01:19:13;;;;;;;3.20;2.60;;;11.50;99.90;;;;;;4974750;28;20381;-79
2023/02/18 01:21:40;;;;;;;2.95;2.20;;;11.50;99.90;;;;;;4976390;28;20129;-78
2023/02/18 01:24:07;;;;;;;3.13;1.73;;;11.50;99.90;;;;;;4975487;28;20051;-81
2023/02/18 01:26:34;;;;;;;3.75;1.98;;;11.60;99.90;;;;;;4959101;28;20106;-77
2023/02/18 01:29:00;;;;;;;3.25;1.70;;;11.60;99.90;;;;;;4958542;28;20050;-76
2023/02/18 01:31:27;;;;;;;2.63;2.30;;;11.70;99.90;;;;;;4954565;28;20058;-80
2023/02/18 01:33:54;;;;;;;1.80;1.40;;;11.70;99.90;;;;;;4957193;28;20043;-81
2023/02/18 01:36:21;;;;;;;2.00;1.40;;;11.70;99.90;;;;;;4955823;28;20355;-78
2023/02/18 01:38:47;;;;;;;2.60;1.42;;;11.70;99.90;;;;;;4954961;28;20075;-78
2023/02/18 01:41:16;;;;;;;3.20;1.35;;;11.70;99.90;;;;;;4955809;28;20047;-78
2023/02/18 01:43:43;;;;;;;1.60;1.17;;;11.70;99.90;;;;;;4956102;28;20039;-80
2023/02/18 01:46:09;;;;;;;1.77;1.30;;;11.70;99.90;;;;;;4955545;28;20051;-78
2023/02/18 01:48:36;;;;;;;3.42;1.45;;;11.60;99.90;;;;;;4957150;28;20106;-79
2023/02/18 01:51:06;;;;;;;2.72;1.27;;;11.50;99.90;;;;;;4954824;28;20043;-81
2023/02/18 01:53:32;;;;;;;4.40;2.75;;;11.40;99.90;;;;;;4957305;28;20112;-79
2023/02/18 01:55:59;;;;;;;1.73;1.27;;;11.40;99.90;;;;;;4956190;28;20070;-81
2023/02/18 01:58:25;;;;;;;1.90;1.02;;;11.40;99.90;;;;;;4938842;28;20489;-79
2023/02/18 02:00:52;;;;;;;3.30;1.20;;;11.40;99.90;;;;;;4940043;28;20145;-78
2023/02/18 02:03:19;;;;;;;1.95;0.98;;;11.40;99.90;;;;;;4956571;28;20386;-79
2023/02/18 02:05:46;;;;;;;1.40;0.90;;;11.40;99.90;;;;;;4954485;28;20054;-80
2023/02/18 02:08:14;;;;;;;1.77;1.00;;;11.40;99.90;;;;;;4955415;28;20086;-78
2023/02/18 02:10:41;;;;;;;4.65;1.35;;;11.40;99.90;;;;;;4954733;28;20147;-79
2023/02/18 02:13:08;;;;;;;2.25;1.20;;;11.40;99.90;;;;;;4974888;28;20121;-76
2023/02/18 02:15:34;;;;;;;1.92;1.20;;;11.50;99.90;;;;;;4974606;28;20046;-80
2023/02/18 02:18:01;;;;;;;2.28;1.00;;;11.50;99.90;;;;;;4957906;28;20038;-79
2023/02/18 02:20:28;;;;;;;1.67;0.85;;;11.40;99.90;;;;;;4974659;28;20047;-77
2023/02/18 02:22:54;;;;;;;2.17;1.00;;;11.50;99.90;;;;;;4974728;28;20065;-80
2023/02/18 02:25:21;;;;;;;3.30;1.08;;;11.50;99.90;;;;;;4974665;28;20469;-77
2023/02/18 02:27:48;;;;;;;1.23;0.90;;;11.60;99.90;;;;;;4976034;28;20050;-80
2023/02/18 02:30:14;;;;;;;1.85;0.90;;;11.60;99.90;;;;;;4958957;28;20047;-80
2023/02/18 02:32:41;;;;;;;2.60;1.35;;;11.60;99.90;;;;;;4975249;28;20425;-77
2023/02/18 02:35:08;;;;;;;2.15;1.13;;;11.50;99.90;;;;;;4975183;28;20051;-79
2023/02/18 02:37:34;;;;;;;1.05;0.80;;;11.60;99.90;;;;;;4973485;28;20047;-77
2023/02/18 02:40:01;;;;;;;2.65;0.85;;;11.50;99.90;;;;;;4974486;28;20074;-77
2023/02/18 02:42:31;;;;;;;1.58;0.85;;;11.50;99.90;;;;;;4974614;28;20102;-80
2023/02/18 02:44:58;;;;;;;3.72;1.02;;;11.50;99.90;;;;;;4973731;28;20046;-76
2023/02/18 02:47:24;;;;;;;2.03;0.80;;;11.50;99.90;;;;;;4961718;28;20358;-77
2023/02/18 02:49:51;;;;;;;2.85;0.77;;;11.40;99.90;;;;;;4962037;28;20070;-80
2023/02/18 02:52:18;;;;;;;2.72;0.98;;;11.40;99.90;;;;;;4977308;28;20053;-81
2023/02/18 02:54:44;;;;;;;2.75;1.08;;;11.30;99.90;;;;;;4978059;28;20062;-80
2023/02/18 02:57:11;;;;;;;4.85;1.35;;;11.30;99.90;;;;;;4978115;28;20469;-81
2023/02/18 02:59:48;;;;;;;2.08;0.80;;;11.30;99.90;;;;;;4978086;28;20489;-78
2023/02/18 03:02:15;;;;;;;3.70;1.83;;;11.30;99.90;;;;;;4961912;28;20434;-80
2023/02/18 03:04:41;;;;;;;3.08;1.40;;;11.30;99.90;;;;;;4977120;28;20469;-78
2023/02/18 03:07:11;;;;;;;4.40;1.20;;;11.20;99.90;;;;;;4961954;28;20050;-80
2023/02/18 03:09:38;;;;;;;1.02;0.80;;;11.20;99.90;;;;;;4961750;28;20465;-78
2023/02/18 03:12:06;;;;;;;8.68;1.75;;;11.20;99.90;;;;;;4965622;28;20097;-81
2023/02/18 03:14:33;;;;;;;7.22;2.13;;;11.10;99.90;;;;;;4958508;29;20603;-80
2023/02/18 03:17:00;;;;;;;6.68;1.90;;;11.00;99.90;;;;;;4958299;28;20047;-79
2023/02/18 03:19:26;;;;;;;3.05;1.20;;;11.00;99.90;;;;;;4958293;28;20048;-78
2023/02/18 03:21:57;;;;;;;6.70;2.13;;;11.00;99.90;;;;;;4958666;28;20059;-80
2023/02/18 03:24:24;;;;;;;3.90;1.52;;;11.00;99.90;;;;;;4957545;28;20456;-78
2023/02/18 03:26:51;;;;;;;3.67;1.40;;;11.10;99.90;;;;;;4957974;28;20047;-81
2023/02/18 03:29:18;;;;;;;4.72;1.20;;;11.10;99.90;;;;;;4958750;29;20458;-78
2023/02/18 03:31:47;;;;;;;3.10;0.90;;;11.10;99.90;;;;;;4957538;28;20055;-80
2023/02/18 03:34:14;;;;;;;3.53;1.33;;;11.10;99.90;;;;;;4958138;28;20474;-78
2023/02/18 03:36:41;;;;;;;4.78;1.20;;;11.00;99.90;;;;;;4957771;28;20039;-80
2023/02/18 03:39:08;;;;;;;3.45;0.93;;;11.00;99.90;;;;;;4957107;28;20398;-79
2023/02/18 03:41:34;;;;;;;4.07;1.13;;;11.00;99.90;;;;;;4957820;28;20066;-81
2023/02/18 03:44:02;;;;;;;3.28;1.15;;;11.00;99.90;;;;;;4957740;29;20051;-79
2023/02/18 03:46:28;;;;;;;2.25;1.17;;;11.10;99.90;;;;;;4957999;28;20047;-79
2023/02/18 03:48:57;;;;;;;3.97;1.67;;;11.00;99.90;;;;;;4957836;28;20143;-80
2023/02/18 03:51:23;;;;;;;4.80;1.15;;;11.00;99.90;;;;;;4957871;28;20039;-79
2023/02/18 03:53:50;;;;;;;3.50;1.13;;;11.00;99.90;;;;;;4958810;28;20047;-79
2023/02/18 03:56:17;;;;;;;4.93;1.17;;;11.00;99.90;;;;;;4957598;29;20069;-81
2023/02/18 03:58:43;;;;;;;2.45;1.10;;;11.00;99.90;;;;;;4955682;28;20059;-81
2023/02/18 04:01:10;;;;;;;3.33;1.10;;;11.00;99.90;;;;;;4958743;28;20110;-77
2023/02/18 04:03:37;;;;;;;4.03;1.10;;;11.00;99.90;;;;;;4958080;28;20062;-79
2023/02/18 04:06:03;;;;;;;4.03;1.33;;;11.00;99.90;;;;;;4958420;28;20051;-82
2023/02/18 04:08:30;;;;;;;2.40;1.00;;;10.90;99.90;;;;;;4974047;28;20451;-80
2023/02/18 04:10:57;;;;;;;3.15;1.08;;;10.90;99.90;;;;;;4958423;28;20047;-78
2023/02/18 04:13:23;;;;;;;4.95;1.27;;;10.90;99.90;;;;;;4977824;28;20049;-79
2023/02/18 04:15:50;;;;;;;3.28;1.10;;;10.90;99.90;;;;;;4977460;28;20496;-81
2023/02/18 04:18:17;;;;;;;7.35;2.53;;;10.90;99.90;;;;;;4976698;28;20476;-77
2023/02/18 04:20:45;;;;;;;6.82;1.20;;;10.90;99.90;;;;;;4976457;28;20046;-78
2023/02/18 04:23:11;;;;;;;2.90;1.00;;;10.90;99.90;;;;;;4977769;28;20049;-78
2023/02/18 04:25:38;;;;;;;3.80;1.20;;;11.00;99.90;;;;;;4976307;28;20050;-79
2023/02/18 04:28:05;;;;;;;3.45;1.35;;;10.90;99.90;;;;;;4976203;28;20051;-78
2023/02/18 04:30:31;;;;;;;4.85;1.40;;;10.90;99.90;;;;;;4976311;28;20046;-78
2023/02/18 04:32:58;;;;;;;3.58;1.13;;;10.90;99.90;;;;;;4977495;28;20350;-81
2023/02/18 04:35:24;;;;;;;4.60;1.33;;;10.90;99.90;;;;;;4977095;28;20039;-80
2023/02/18 04:37:51;;;;;;;3.35;1.52;;;10.90;99.90;;;;;;4976191;28;20065;-77
2023/02/18 04:40:18;;;;;;;3.65;1.08;;;10.80;99.90;;;;;;4977037;28;20050;-77
2023/02/18 04:42:45;;;;;;;4.45;1.38;;;10.80;99.90;;;;;;4977442;28;20042;-77
2023/02/18 04:45:11;;;;;;;3.10;1.20;;;10.80;99.90;;;;;;4974917;28;20043;-80
2023/02/18 04:47:38;;;;;;;3.38;0.90;;;10.80;99.90;;;;;;4976901;28;20058;-78
2023/02/18 04:50:04;;;;;;;4.82;1.27;;;10.80;99.90;;;;;;4977151;28;20054;-80
2023/02/18 04:52:31;;;;;;;4.20;1.13;;;10.80;99.90;;;;;;4970664;28;20035;-78
2023/02/18 04:54:58;;;;;;;2.55;1.00;;;10.80;99.90;;;;;;4957498;28;20059;-81
2023/02/18 04:57:24;;;;;;;6.43;1.05;;;10.80;99.90;;;;;;4956929;28;20415;-82
2023/02/18 04:59:51;;;;;;;1.67;0.95;;;10.80;99.90;;;;;;4957777;28;20050;-79
2023/02/18 05:02:20;;;;;;;3.95;1.10;;;10.80;99.90;;;;;;4957343;28;20043;-82
2023/02/18 05:04:46;;;;;;;5.73;1.37;;;10.70;99.90;;;;;;4956952;28;20039;-79
2023/02/18 05:07:13;;;;;;;4.82;1.40;;;10.80;99.90;;;;;;4957759;28;20057;-78
2023/02/18 05:09:39;;;;;;;6.20;1.52;;;10.80;99.90;;;;;;4956982;28;20371;-78
2023/02/18 05:12:06;;;;;;;3.55;1.15;;;10.80;99.90;;;;;;4971099;28;20362;-77
2023/02/18 05:14:33;;;;;;;2.25;0.95;;;10.80;99.90;;;;;;4976695;28;20050;-78
2023/02/18 05:16:59;;;;;;;4.97;1.10;;;10.80;99.90;;;;;;4975580;28;20081;-79
2023/02/18 05:19:26;;;;;;;1.80;1.00;;;10.80;99.90;;;;;;4977091;28;20074;-78
2023/02/18 05:21:54;;;;;;;3.45;1.08;;;10.80;99.90;;;;;;4976600;28;20050;-78
2023/02/18 05:24:21;;;;;;;2.42;0.88;;;10.80;99.90;;;;;;4975335;28;20046;-77
2023/02/18 05:26:47;;;;;;;3.50;1.30;;;10.80;99.90;;;;;;4976342;28;20047;-80
2023/02/18 05:29:14;;;;;;;8.82;1.83;;;10.80;99.90;;;;;;4976197;28;20043;-79
2023/02/18 05:31:41;;;;;;;4.70;1.20;;;10.80;99.90;;;;;;4975518;28;20035;-79
2023/02/18 05:34:07;;;;;;;3.33;0.90;;;10.80;99.90;;;;;;4975115;28;20070;-82
2023/02/18 05:36:34;;;;;;;1.30;0.60;;;10.90;99.90;;;;;;4959232;28;20043;-81
2023/02/18 05:39:01;;;;;;;1.38;0.90;;;10.90;99.90;;;;;;4974163;28;20058;-79
2023/02/18 05:41:27;;;;;;;6.47;1.10;;;10.90;99.90;;;;;;4976132;28;20043;-82
2023/02/18 05:46:39;;;;;;;3.42;0.98;;;10.90;99.90;;;;;;4975958;28;20051;-81
2023/02/18 05:49:06;;;;;;;2.88;0.85;;;10.90;99.90;;;;;;4975143;28;20121;-79
2023/02/18 05:51:34;;;;;;;2.97;1.20;;;10.90;99.90;;;;;;4975137;28;20039;-81
2023/02/18 05:54:00;;;;;;;2.17;0.90;;;11.00;99.90;;;;;;4975245;28;20101;-79
2023/02/18 05:56:27;;;;;;;3.35;1.00;;;11.00;99.90;;;;;;4975338;28;20377;-80
2023/02/18 05:58:54;;;;;;;3.30;1.00;;;11.00;99.90;;;;;;4974366;28;20047;-81
2023/02/18 06:01:21;;;;;;;4.50;1.00;;;10.90;99.90;;;;;;4975952;28;20058;-78
2023/02/18 06:03:48;;;;;;;2.25;0.90;;;11.00;99.90;;;;;;4957919;28;20413;-79
2023/02/18 06:06:15;;;;;;;2.17;0.90;;;11.00;99.90;;;;;;4975825;28;20050;-80
2023/02/18 06:08:41;;;;;;;2.78;0.90;;;11.00;99.90;;;;;;4975120;28;20054;-82
2023/02/18 06:11:09;;;;;;;2.72;1.00;;;11.00;99.90;;;;;;4974345;28;20129;-77
2023/02/18 06:13:36;;;;;;;2.60;1.30;;;11.00;99.90;;;;;;4975554;28;20406;-81
2023/02/18 06:16:02;;;;;;;4.30;1.20;;;11.00;99.90;;;;;;4975774;28;20054;-78
2023/02/18 06:18:29;;;;;;;2.20;1.02;;;11.00;99.90;;;;;;4974990;28;20038;-78
2023/02/18 06:20:57;;;;;;;3.67;0.90;;;11.00;99.90;;;;;;4977015;28;20042;-77
2023/02/18 06:23:23;;;;;;;1.70;0.73;;;11.00;99.90;;;;;;4979999;28;20382;-80
2023/02/18 06:25:50;;;;;;;5.20;1.65;;;11.00;99.90;;;;;;4978693;28;20046;-79
2023/02/18 06:28:17;;;;;;;2.08;1.17;;;11.00;99.90;;;;;;4979734;28;20109;-78
2023/02/18 06:30:43;;;;;;;1.45;0.70;;;11.00;99.90;;;;;;4978727;28;20068;-81
2023/02/18 06:33:10;;;;;;;2.22;0.95;;;11.00;99.90;;;;;;4978284;28;20377;-79
2023/02/18 06:35:36;;;;;;;2.28;1.00;;;11.00;99.90;;;;;;4979928;28;20042;-79
2023/02/18 06:38:03;;;;;;;4.88;0.95;;;11.00;99.90;;;;;;4978693;28;20043;-81
2023/02/18 06:40:30;;;;;;;2.25;0.90;;;11.00;99.90;;;;;;4979846;28;20070;-81
2023/02/18 06:42:56;;;;;;;5.07;1.13;;;11.00;99.90;;;;;;4977993;28;20093;-78
2023/02/18 06:45:23;;;;;;;2.80;0.88;;;11.00;99.90;;;;;;4977624;28;20050;-79
2023/02/18 06:47:50;;;;;;;4.82;1.00;;;11.00;99.90;;;;;;4978249;28;20421;-80
2023/02/18 06:50:18;;;;;;;1.65;0.90;;;11.00;99.90;;;;;;4978533;28;20043;-81
2023/02/18 06:52:45;;;;;;;6.43;1.00;;;11.00;99.90;;;;;;4978264;28;20047;-81
2023/02/18 06:55:11;;;;;;;4.20;1.25;;;11.10;99.90;;;;;;4978991;28;20047;-77
2023/02/18 06:57:38;;;;;;;4.28;1.20;;;11.10;99.90;;;;;;4978458;28;20050;-81
2023/02/18 07:00:05;;;;;;;3.70;1.00;;;11.10;99.90;;;;;;4979156;28;20410;-81
2023/02/18 07:02:31;;;;;;;4.05;1.02;;;11.10;99.90;;;;;;4978756;28;20482;-81
2023/02/18 07:04:58;;;;;;;6.78;1.20;;;11.10;99.90;;;;;;4977013;28;20061;-79
2023/02/18 07:07:24;;;;;;;3.58;1.10;;;11.10;99.90;;;;;;4977842;28;20477;-78
2023/02/18 07:09:51;;;;;;;2.88;0.93;;;11.10;99.90;;;;;;4975932;28;20054;-77
2023/02/18 07:12:18;;;;;;;2.00;0.80;;;11.10;99.90;;;;;;4970288;28;20051;-76
2023/02/18 07:14:45;;;;;;;1.73;0.80;;;11.10;99.90;;;;;;4976084;28;20038;-78
2023/02/18 07:17:11;;;;;;;1.75;0.82;;;11.10;99.90;;;;;;4964594;28;20046;-77
2023/02/18 07:19:38;;;;;;;1.83;0.85;;;11.10;99.90;;;;;;4978533;28;20465;-76
2023/02/18 07:22:05;;;;;;;2.85;0.90;;;11.20;99.90;;;;;;4985293;28;20046;-78
2023/02/18 07:24:31;;;;;;;2.38;1.27;;;11.10;99.90;;;;;;4997106;28;20042;-76
2023/02/18 07:26:58;;;;;;;2.25;1.00;;;11.20;99.90;;;;;;4997351;28;20112;-76
2023/02/18 07:29:25;;;;;;;4.55;1.27;;;11.10;99.90;;;;;;4997811;28;20043;-79
2023/02/18 07:31:52;;;;;;;3.20;0.95;;;11.20;99.90;;;;;;4977280;28;20119;-77
2023/02/18 07:34:19;;;;;;;3.60;1.02;;;11.20;99.90;;;;;;4977887;28;20405;-80
2023/02/18 07:36:46;;;;;;;5.93;1.80;;;11.10;99.90;;;;;;4961363;28;20043;-80
2023/02/18 07:39:12;;;;;;;5.40;2.20;;;11.20;99.90;;;;;;4957748;28;20043;-77
2023/02/18 07:41:39;;;;;;;2.35;0.80;;;11.20;99.90;;;;;;4958963;28;20039;-79
2023/02/18 07:44:13;;;;;;;3.35;0.98;;;11.20;99.90;;;;;;4961013;28;20199;-80
2023/02/18 07:46:40;;;;;;;4.53;1.02;;;11.20;99.90;;;;;;4977548;28;20050;-80
2023/02/18 07:49:07;;;;;;;4.28;1.20;;;11.20;99.90;;;;;;4977697;28;20097;-77
2023/02/18 07:51:36;;;;;;;4.53;1.88;;;11.20;99.90;;;;;;4961142;28;20043;-77
2023/02/18 07:54:03;;;;;;;2.85;0.90;;;11.20;99.90;;;;;;4957051;28;20043;-79
2023/02/18 07:56:29;;;;;;;3.60;1.23;;;11.30;99.90;;;;;;4971964;28;20383;-77
2023/02/18 07:58:56;;;;;;;2.28;1.00;;;11.30;99.90;;;;;;4976017;28;20113;-77
2023/02/18 08:01:23;;;;;;;5.28;1.05;;;11.30;99.90;;;;;;4977180;28;20039;-79
2023/02/18 08:03:49;;;;;;;4.22;1.42;;;11.30;99.90;;;;;;4960044;28;20101;-79
2023/02/18 08:06:16;;;;;;;4.38;1.02;;;11.40;99.90;;;;;;4957580;29;20039;-80
2023/02/18 08:08:43;;;;;;;4.10;1.27;;;11.40;99.90;;;;;;4957759;28;20039;-78
2023/02/18 08:13:55;;;;;;;2.63;1.60;;;11.40;99.90;;;;;;4971520;28;20125;-78
2023/02/18 08:16:21;;;;;;;2.92;0.95;;;11.40;99.90;;;;;;4976287;28;20050;-80
2023/02/18 08:18:48;;;;;;;2.35;0.80;;;11.50;99.90;;;;;;4965514;28;20092;-79
2023/02/18 08:21:16;;;;;;;4.82;1.20;;;11.50;99.90;;;;;;4966388;28;20459;-79
2023/02/18 08:23:43;;;;;;;5.57;1.10;;;11.50;99.90;;;;;;4966395;28;20047;-80
2023/02/18 08:26:09;;;;;;;2.58;1.00;;;11.50;99.90;;;;;;4968208;28;20035;-78
2023/02/18 08:28:40;;;;;;;2.70;1.05;;;11.60;99.90;;;;;;4966912;28;20039;-78
2023/02/18 08:31:07;;;;;;;2.47;0.80;;;11.60;99.90;;;;;;4965647;28;20039;-78
2023/02/18 08:33:33;;;;;;;3.15;1.70;;;11.60;99.90;;;;;;4966943;28;20457;-78
2023/02/18 08:36:00;;;;;;;4.80;1.13;;;11.70;99.90;;;;;;4966593;28;20039;-78
2023/02/18 08:38:27;;;;;;;4.15;1.42;;;11.70;99.90;;;;;;4964264;28;20528;-76
2023/02/18 08:40:54;;;;;;;2.20;1.10;;;11.70;99.90;;;;;;4967112;28;20057;-78
2023/02/18 08:43:20;;;;;;;2.53;1.27;;;11.70;99.90;;;;;;4964788;28;20062;-78
2023/02/18 08:45:47;;;;;;;3.40;1.08;;;11.70;99.90;;;;;;4966792;28;20457;-81
2023/02/18 08:48:15;;;;;;;2.83;1.10;;;11.70;99.90;;;;;;4976759;28;20046;-78
2023/02/18 08:50:46;;;;;;;3.20;1.00;;;11.70;99.90;;;;;;4976022;28;20038;-78
2023/02/18 08:53:12;;;;;;;1.90;1.38;;;11.70;99.90;;;;;;4975796;28;20039;-80
2023/02/18 08:55:39;;;;;;;3.15;1.02;;;11.70;99.90;;;;;;4975964;28;20047;-77
2023/02/18 08:58:06;;;;;;;3.65;1.38;;;11.80;99.90;;;;;;4975992;28;20035;-80
2023/02/18 09:00:32;;;;;;;5.22;1.10;;;11.80;99.90;;;;;;4976651;28;20054;-80
2023/02/18 09:03:01;;;;;;;2.67;0.95;;;11.90;99.90;;;;;;4975463;28;20047;-80
2023/02/18 09:05:28;;;;;;;2.97;1.33;;;12.00;99.90;;;;;;4975210;28;20046;-80
2023/02/18 09:07:54;;;;;;;1.92;0.70;;;12.00;99.90;;;;;;4959691;28;20046;-78
2023/02/18 09:10:21;;;;;;;2.65;0.95;;;12.00;99.90;;;;;;4975113;28;20047;-78
2023/02/18 09:12:49;;;;;;;2.65;1.10;;;12.00;99.90;;;;;;4959361;28;20039;-77
2023/02/18 09:15:16;;;;;;;2.65;0.95;;;12.00;99.90;;;;;;4973567;28;20035;-78
2023/02/18 09:17:43;;;;;;;5.03;1.10;;;12.00;99.90;;;;;;4965963;28;20042;-77
2023/02/18 09:20:09;;;;;;;2.63;0.90;;;12.10;99.90;;;;;;4966612;28;20043;-80
2023/02/18 09:22:36;;;;;;;2.20;0.90;;;12.20;99.90;;;;;;4964694;28;20039;-79
2023/02/18 09:25:03;;;;;;;4.25;1.33;;;12.30;99.90;;;;;;4956162;28;20058;-80
2023/02/18 09:27:29;;;;;;;3.22;1.42;;;12.40;99.90;;;;;;4957137;28;20051;-76
2023/02/18 09:29:56;;;;;;;2.45;0.80;;;12.40;99.90;;;;;;4940360;29;20047;-78
2023/02/18 09:32:23;;;;;;;2.65;1.25;;;12.40;99.90;;;;;;4955760;28;20040;-76
2023/02/18 09:35:01;;;;;;;3.80;1.00;;;12.40;99.90;;;;;;4957135;28;20043;-79
2023/02/18 09:37:28;;;;;;;5.78;1.10;;;12.40;99.90;;;;;;4956293;28;20035;-79
2023/02/18 09:39:55;;;;;;;1.70;0.88;;;12.40;99.90;;;;;;4956626;28;20140;-80
2023/02/18 09:42:23;;;;;;;3.42;1.98;;;12.50;99.90;;;;;;4956443;28;20110;-80
2023/02/18 09:44:50;;;;;;;3.38;1.00;;;12.40;99.90;;;;;;4955207;28;20066;-78
2023/02/18 09:47:16;;;;;;;3.28;1.00;;;12.40;99.90;;;;;;4968124;28;20078;-79
2023/02/18 09:49:44;;;;;;;5.40;1.40;;;12.30;99.90;;;;;;4963555;28;20050;-77
2023/02/18 09:52:12;;;;;;;3.80;1.70;;;12.30;99.90;;;;;;4961297;28;20410;-79
2023/02/18 09:54:38;;;;;;;4.40;1.10;;;12.30;99.90;;;;;;4955744;28;20047;-80
2023/02/18 09:57:05;;;;;;;3.25;1.05;;;12.30;99.90;;;;;;4954768;28;20106;-78
2023/02/18 09:59:31;;;;;;;2.33;1.50;;;12.30;99.90;;;;;;4955363;28;20062;-81
2023/02/18 10:01:59;;;;;;;3.70;0.88;;;12.30;99.90;;;;;;4956421;28;20039;-79
2023/02/18 10:04:29;;;;;;;;;;;12.40;99.90;;;;;;4955507;28;20046;-80
2023/02/18 10:06:56;;;;;;;3.03;1.00;;;12.40;99.90;;;;;;4955120;28;20356;-81
2023/02/18 10:09:22;;;;;;;4.82;1.10;;;12.50;99.90;;;;;;4974050;28;20046;-79
2023/02/18 10:11:50;;;;;;;2.70;1.05;;;12.60;99.90;;;;;;4974040;28;20162;-79
2023/02/18 10:14:17;;;;;;;5.85;2.00;;;12.70;99.90;;;;;;4975316;28;20462;-78
2023/02/18 10:16:44;;;;;;;3.85;1.00;;;12.80;99.90;;;;;;4975219;28;20047;-81
2023/02/18 10:19:10;;;;;;;2.25;0.98;;;12.90;99.90;;;;;;4974102;28;20038;-76
2023/02/18 10:21:39;;;;;;;1.63;0.80;;;13.00;99.90;;;;;;4974650;28;20047;-78
2023/02/18 10:24:06;;;;;;;4.57;1.15;;;13.10;99.90;;;;;;4971145;28;20061;-77
2023/02/18 10:26:32;;;;;;;2.17;0.98;;;13.10;99.90;;;;;;4963320;28;20046;-80
2023/02/18 10:28:59;;;;;;;1.75;0.90;;;13.00;99.90;;;;;;4965309;28;20042;-80
2023/02/18 10:31:26;;;;;;;3.08;0.85;;;13.10;99.90;;;;;;4973587;28;20457;-79
2023/02/18 10:33:52;;;;;;;2.83;0.85;;;13.10;99.90;;;;;;4974827;28;20070;-79
2023/02/18 10:36:19;;;;;;;2.17;0.80;;;13.20;99.90;;;;;;4975251;28;20462;-80
2023/02/18 10:38:46;;;;;;;3.10;1.10;;;13.20;99.90;;;;;;4974440;28;20042;-79
2023/02/18 10:41:13;;;;;;;2.38;1.02;;;13.20;99.90;;;;;;4974947;28;20046;-80
2023/02/18 10:43:39;;;;;;;1.88;0.82;;;13.20;99.90;;;;;;4989692;28;20150;-78
2023/02/18 10:46:06;;;;;;;5.13;1.70;;;13.20;99.90;;;;;;4975595;28;20097;-78
2023/02/18 10:48:32;;;;;;;5.55;1.00;;;13.20;99.90;;;;;;4974892;28;20047;-79
2023/02/18 10:50:59;;;;;;;2.13;0.93;;;13.20;99.90;;;;;;4974146;28;20031;-77
2023/02/18 10:53:26;;;;;;;3.60;0.88;;;13.20;99.90;;;;;;4975208;28;20067;-79
2023/02/18 10:55:55;;;;;;;1.80;0.70;;;13.10;99.90;;;;;;4974532;28;20047;-78
2023/02/18 10:58:22;;;;;;;2.53;0.93;;;13.10;99.90;;;;;;4973702;28;20381;-81
2023/02/18 11:00:48;;;;;;;3.15;0.80;;;13.10;99.90;;;;;;4975036;28;20465;-80
2023/02/18 11:03:15;;;;;;;2.80;1.00;;;13.20;99.90;;;;;;4973704;28;20043;-78
2023/02/18 11:05:42;;;;;;;2.35;0.80;;;13.30;99.90;;;;;;4973955;28;20055;-80
2023/02/18 11:08:09;;;;;;;2.47;1.30;;;13.20;99.90;;;;;;4977720;28;20050;-81
2023/02/18 11:10:35;;;;;;;2.65;1.95;;;13.20;99.90;;;;;;4977184;28;20090;-78
2023/02/18 11:13:02;;;;;;;1.65;0.70;;;13.20;99.90;;;;;;4978280;28;20053;-81
2023/02/18 11:15:29;;;;;;;1.67;1.00;;;13.20;99.90;;;;;;4978326;28;20046;-81
2023/02/18 11:17:55;;;;;;;1.70;0.88;;;13.20;99.90;;;;;;4970022;28;20050;-81
2023/02/18 11:20:22;;;;;;;4.70;1.30;;;13.30;99.90;;;;;;4977283;28;20428;-80
2023/02/18 11:22:49;;;;;;;5.10;1.27;;;13.30;99.90;;;;;;4978232;28;20065;-79
2023/02/18 11:25:15;;;;;;;2.30;1.00;;;13.30;99.90;;;;;;4976084;28;20061;-81
2023/02/18 11:27:42;;;;;;;3.42;1.13;;;13.30;99.90;;;;;;4978221;28;20046;-78
2023/02/18 11:30:08;;;;;;;2.00;1.00;;;13.20;99.90;;;;;;4978144;28;20047;-78
2023/02/18 11:32:35;;;;;;;1.10;0.75;;;13.20;99.90;;;;;;4976464;28;20089;-80
2023/02/18 11:35:02;;;;;;;1.90;0.70;;;13.20;99.90;;;;;;4967644;28;20042;-80
2023/02/18 11:37:28;;;;;;;3.33;1.10;;;13.10;99.90;;;;;;4976632;28;20043;-78
2023/02/18 11:39:55;;;;;;;2.30;0.88;;;13.10;99.90;;;;;;4969329;28;20035;-78
2023/02/18 11:42:23;;;;;;;2.83;0.95;;;13.10;99.90;;;;;;4959839;28;20042;-79
2023/02/18 11:44:51;;;;;;;2.10;0.80;;;13.10;99.90;;;;;;4976650;28;20057;-79
2023/02/18 11:47:18;;;;;;;1.83;0.98;;;13.10;99.90;;;;;;4976003;28;20166;-79
2023/02/18 11:49:45;;;;;;;1.42;0.90;;;13.10;99.90;;;;;;4976774;28;20472;-79
2023/02/18 11:52:13;;;;;;;2.42;1.08;;;13.10;99.90;;;;;;4975458;28;20038;-80
2023/02/18 11:54:39;;;;;;;3.08;0.80;;;13.10;99.90;;;;;;4973029;28;20039;-81
2023/02/18 11:57:07;;;;;;;2.92;1.00;;;13.20;99.90;;;;;;4969037;28;20133;-82
2023/02/18 11:59:44;;;;;;;1.95;0.80;;;13.20;99.90;;;;;;4985679;28;20070;-78
2023/02/18 12:05:58;;;;;;;3.03;0.95;;;13.20;99.90;;;;;;4977900;28;20040;-79
2023/02/18 12:08:25;;;;;;;2.70;0.95;;;13.30;99.90;;;;;;4949505;28;20038;-81
2023/02/18 12:10:52;;;;;;;1.27;0.80;;;13.20;99.90;;;;;;4966402;28;20039;-79
2023/02/18 12:13:18;;;;;;;5.45;1.45;;;13.20;99.90;;;;;;4966435;28;20050;-80
2023/02/18 12:15:45;;;;;;;3.50;1.13;;;13.20;99.90;;;;;;4967655;28;20489;-79
2023/02/18 12:18:13;;;;;;;2.10;0.90;;;13.20;99.90;;;;;;4966391;28;20035;-79
2023/02/18 12:20:40;;;;;;;3.10;0.93;;;13.20;99.90;;;;;;4965706;28;20067;-81
2023/02/18 12:23:08;;;;;;;3.28;0.88;;;13.30;99.90;;;;;;4966634;28;20121;-80
2023/02/18 12:25:36;;;;;;;2.03;1.02;;;13.30;99.90;;;;;;4956991;28;20058;-80
2023/02/18 12:28:03;;;;;;;2.25;0.85;;;13.30;99.90;;;;;;4954826;28;20118;-81
2023/02/18 12:30:29;;;;;;;3.22;1.33;;;13.30;99.90;;;;;;4969228;28;20038;-80
2023/02/18 12:32:57;;;;;;;4.25;1.55;;;13.30;99.90;;;;;;4967980;28;20046;-79
2023/02/18 12:35:24;;;;;;;2.55;1.25;;;13.30;99.90;;;;;;4972331;28;20030;-80
2023/02/18 12:37:51;;;;;;;1.27;0.88;;;13.30;99.90;;;;;;4962450;28;20043;-81
2023/02/18 12:40:19;;;;;;;1.77;0.90;;;13.30;99.90;;;;;;4966756;28;20043;-78
2023/02/18 12:42:48;;;;;;;3.72;1.30;;;13.20;99.90;;;;;;4965022;28;20047;-81
2023/02/18 12:45:15;;;;;;;2.33;1.27;;;13.30;99.90;;;;;;4975028;28;20410;-78
2023/02/18 12:47:41;;;;;;;1.27;0.93;;;13.30;99.90;;;;;;4968733;28;20043;-78
2023/02/18 12:50:11;;;;;;;9.55;1.90;;;13.30;99.90;;;;;;4957375;28;20039;-78
2023/02/18 12:52:38;;;;;;;2.40;1.50;;;13.20;99.90;;;;;;4961261;28;20065;-77
2023/02/18 12:55:05;;;;;;;2.30;1.42;;;13.00;99.90;;;;;;4970357;28;20117;-79